Time;durP1;ratioP1;P1;durP2;ratioP2;P2;SDS_P1;SDS_P2;PMS_P1;PMS_P2;Temp;Humidity;BMP_temperature;BMP_pressure;BME280_temperature;BME280_humidity;BME280_pressure;Samples;Min_cycle;Max_cycle;Signal;HPM_P1;HPM_P2
2020/12/23 00:04:23;;;;;;;6.80;3.80;;;9.00;99.90;;;;;;21078099;28;20055;-78
2020/12/23 00:14:24;;;;;;;210.97;11.87;;;9.00;99.90;;;;;;21072264;28;20561;-77
2020/12/23 00:24:25;;;;;;;71.70;10.70;;;8.60;99.90;;;;;;21073522;28;20514;-78
2020/12/23 00:34:26;;;;;;;96.07;12.10;;;8.30;99.90;;;;;;21075811;28;20050;-78
2020/12/23 00:44:27;;;;;;;17.60;10.40;;;8.50;99.90;;;;;;21060663;28;20032;-77
2020/12/23 00:54:28;;;;;;;24.63;11.63;;;8.60;99.90;;;;;;21074392;28;20024;-78
2020/12/23 01:04:29;;;;;;;29.20;13.10;;;8.40;99.90;;;;;;21067051;28;20032;-79
2020/12/23 01:14:30;;;;;;;21.03;11.20;;;8.90;99.90;;;;;;21096041;28;20118;-78
2020/12/23 01:24:31;;;;;;;17.37;9.43;;;8.90;99.90;;;;;;21097272;28;20021;-79
2020/12/23 01:34:31;;;;;;;19.83;9.03;;;8.90;99.90;;;;;;21094519;28;20032;-78
2020/12/23 01:44:37;;;;;;;20.50;10.17;;;8.80;99.90;;;;;;21045136;28;20025;-79
2020/12/23 01:54:38;;;;;;;17.67;8.98;;;8.80;99.90;;;;;;21019752;28;20478;-78
2020/12/23 02:04:39;;;;;;;14.57;8.17;;;8.90;99.90;;;;;;21013024;28;20033;-78
2020/12/23 02:14:40;;;;;;;16.00;8.67;;;8.80;99.90;;;;;;21009542;28;20482;-78
2020/12/23 02:24:40;;;;;;;13.70;8.00;;;8.70;99.90;;;;;;21005581;28;20071;-78
2020/12/23 02:34:42;;;;;;;17.93;9.50;;;8.60;99.90;;;;;;21019120;28;20036;-78
2020/12/23 02:44:43;;;;;;;16.60;8.97;;;8.50;99.90;;;;;;21059724;28;20039;-78
2020/12/23 02:54:44;;;;;;;13.20;8.37;;;8.60;99.90;;;;;;21085684;28;20348;-78
2020/12/23 03:04:44;;;;;;;13.20;8.03;;;8.70;99.90;;;;;;21086305;28;20119;-78
2020/12/23 03:14:45;;;;;;;13.77;7.67;;;8.60;99.90;;;;;;21084887;28;20073;-78
2020/12/23 03:24:46;;;;;;;18.20;8.43;;;8.60;99.90;;;;;;21084455;28;20037;-77
2020/12/23 03:34:47;;;;;;;15.33;8.20;;;8.50;99.90;;;;;;21096486;28;20058;-79
2020/12/23 03:44:48;;;;;;;15.80;7.60;;;8.50;99.90;;;;;;21038288;28;20414;-77
2020/12/23 03:54:48;;;;;;;12.03;7.57;;;8.50;99.90;;;;;;20994368;28;20025;-79
2020/12/23 04:04:49;;;;;;;17.10;8.30;;;8.40;99.90;;;;;;21008413;28;20139;-80
2020/12/23 04:14:50;;;;;;;15.33;7.73;;;8.30;99.90;;;;;;21008642;28;20041;-80
2020/12/23 04:24:51;;;;;;;13.87;7.93;;;8.30;99.90;;;;;;21005301;28;20083;-80
2020/12/23 04:34:52;;;;;;;22.53;8.27;;;8.30;99.90;;;;;;21075300;28;20032;-78
2020/12/23 04:44:53;;;;;;;15.07;8.70;;;8.20;99.90;;;;;;21112511;28;20032;-81
2020/12/23 04:54:53;;;;;;;14.93;8.37;;;8.30;99.90;;;;;;21101716;28;20051;-79
2020/12/23 05:04:54;;;;;;;14.73;8.57;;;8.30;99.90;;;;;;21101121;28;20036;-80
2020/12/23 05:14:55;;;;;;;16.43;8.63;;;8.30;99.90;;;;;;21101658;28;20020;-79
2020/12/23 05:24:57;;;;;;;16.80;8.90;;;8.40;99.90;;;;;;21100278;28;20028;-80
2020/12/23 05:35:00;;;;;;;19.20;9.52;;;8.30;99.90;;;;;;21105561;28;20223;-81
2020/12/23 05:45:00;;;;;;;15.85;9.18;;;8.30;99.90;;;;;;21095978;28;20032;-80
2020/12/23 05:55:02;;;;;;;18.47;9.30;;;8.30;99.90;;;;;;21094135;28;20074;-81
2020/12/23 06:05:02;;;;;;;22.13;10.53;;;8.30;99.90;;;;;;21095182;28;20032;-81
2020/12/23 06:15:12;;;;;;;16.27;9.43;;;8.20;99.90;;;;;;21094873;28;20393;-79
2020/12/23 06:25:14;;;;;;;20.30;9.93;;;8.20;99.90;;;;;;21094140;28;20039;-80
2020/12/23 06:35:15;;;;;;;15.25;9.55;;;8.10;99.90;;;;;;21093187;28;20517;-81
2020/12/23 06:45:16;;;;;;;22.27;10.60;;;8.00;99.90;;;;;;21026624;28;20028;-80
2020/12/23 06:55:18;;;;;;;22.30;11.43;;;7.90;99.90;;;;;;21006301;28;20028;-78
2020/12/23 07:05:21;;;;;;;;;;;8.10;99.90;;;;;;21008603;28;20249;-79
2020/12/23 07:15:27;;;;;;;19.85;10.68;;;8.10;99.90;;;;;;21015105;28;19912;-79
2020/12/23 07:25:28;;;;;;;21.00;10.98;;;8.00;99.90;;;;;;21030547;28;20439;-77
2020/12/23 07:35:29;;;;;;;23.87;13.03;;;8.00;99.90;;;;;;21008239;28;20036;-80
2020/12/23 07:45:31;;;;;;;17.97;11.17;;;8.10;99.90;;;;;;21072075;28;20075;-81
2020/12/23 07:55:31;;;;;;;;;;;8.20;99.90;;;;;;21092789;28;20028;-79
2020/12/23 08:05:33;;;;;;;24.15;12.27;;;8.20;99.90;;;;;;21090703;28;19914;-80
2020/12/23 08:15:34;;;;;;;22.13;12.10;;;8.10;99.90;;;;;;21124993;28;20106;-80
2020/12/23 08:25:36;;;;;;;27.33;13.60;;;8.20;99.90;;;;;;21125896;28;20534;-80
2020/12/23 08:35:39;;;;;;;24.25;11.27;;;8.20;99.90;;;;;;21105644;28;20123;-79
2020/12/23 08:45:45;;;;;;;20.27;10.13;;;8.40;99.90;;;;;;21042156;28;20108;-81
2020/12/23 08:55:46;;;;;;;17.10;9.98;;;8.40;99.90;;;;;;21022469;28;20503;-81
2020/12/23 09:05:47;;;;;;;22.03;10.00;;;8.40;99.90;;;;;;21024869;28;20032;-81
2020/12/23 09:15:52;;;;;;;16.17;8.47;;;8.60;99.90;;;;;;21023759;28;20029;-81
2020/12/23 09:25:54;;;;;;;15.02;8.55;;;8.90;99.90;;;;;;21078710;28;20371;-80
2020/12/23 09:36:05;;;;;;;;;;;9.40;99.90;;;;;;21100649;28;20468;-78
2020/12/23 09:46:08;;;;;;;12.65;7.22;;;9.70;99.90;;;;;;21092361;28;20279;-77
2020/12/23 09:56:09;;;;;;;12.93;8.20;;;9.70;99.90;;;;;;21090550;28;20035;-78
2020/12/23 10:06:10;;;;;;;13.23;7.00;;;9.60;99.90;;;;;;21084532;28;20424;-77
2020/12/23 10:16:10;;;;;;;13.53;7.80;;;9.90;99.90;;;;;;21096606;28;20032;-77
2020/12/23 10:26:14;;;;;;;16.53;7.43;;;9.80;99.90;;;;;;21085524;28;20499;-77
2020/12/23 10:36:16;;;;;;;12.00;7.70;;;9.90;99.90;;;;;;21091613;28;20579;-77
2020/12/23 10:46:17;;;;;;;13.40;7.88;;;10.00;99.90;;;;;;21096604;28;20035;-77
2020/12/23 10:56:18;;;;;;;13.83;8.13;;;10.00;99.90;;;;;;21087828;28;20465;-77
2020/12/23 11:06:19;;;;;;;16.83;8.43;;;10.10;99.90;;;;;;21078729;28;20060;-77
2020/12/23 11:16:21;;;;;;;15.53;7.67;;;10.10;99.90;;;;;;21078748;28;20050;-77
2020/12/23 11:26:22;;;;;;;9.88;6.68;;;10.10;99.90;;;;;;21082346;28;20542;-77
2020/12/23 11:36:23;;;;;;;10.13;5.77;;;10.10;99.90;;;;;;21076077;28;20057;-76
2020/12/23 11:46:24;;;;;;;11.23;6.57;;;10.10;99.90;;;;;;21003039;28;20028;-76
2020/12/23 11:56:25;;;;;;;9.07;5.63;;;10.20;99.90;;;;;;21008463;28;20028;-77
2020/12/23 12:06:27;;;;;;;;;;;10.30;99.90;;;;;;21016536;28;20139;-78
2020/12/23 12:16:28;;;;;;;12.65;7.18;;;10.40;99.90;;;;;;21007965;28;19912;-80
2020/12/23 12:26:38;;;;;;;10.37;6.80;;;10.30;99.90;;;;;;21009896;28;20539;-78
2020/12/23 12:36:39;;;;;;;11.93;5.97;;;10.40;99.90;;;;;;21065898;28;20032;-76
2020/12/23 12:46:40;;;;;;;12.30;6.77;;;10.30;99.90;;;;;;21080780;28;20066;-75
2020/12/23 12:56:40;;;;;;;12.73;7.00;;;10.40;99.90;;;;;;21084614;28;20141;-76
2020/12/23 13:06:41;;;;;;;13.17;6.03;;;10.50;99.90;;;;;;21106284;28;20040;-76
2020/12/23 13:16:44;;;;;;;10.77;5.55;;;10.50;99.90;;;;;;21090821;28;20039;-76
2020/12/23 13:26:52;;;;;;;8.77;4.88;;;10.70;99.90;;;;;;21088616;28;20032;-76
2020/12/23 13:36:53;;;;;;;9.30;5.50;;;10.80;99.90;;;;;;21093956;28;20081;-76
2020/12/23 13:46:56;;;;;;;8.27;4.93;;;11.00;99.90;;;;;;21016183;28;20495;-76
2020/12/23 13:56:58;;;;;;;7.70;5.43;;;10.90;99.90;;;;;;21058013;28;20032;-80
2020/12/23 14:06:58;;;;;;;8.95;5.18;;;10.90;99.90;;;;;;21095901;28;20520;-79
2020/12/23 14:16:59;;;;;;;7.70;4.78;;;10.90;99.90;;;;;;21063074;28;20201;-77
2020/12/23 14:27:00;;;;;;;6.20;4.20;;;10.80;99.90;;;;;;21097506;28;20346;-77
2020/12/23 14:37:04;;;;;;;8.17;4.87;;;10.90;99.90;;;;;;21025460;28;20032;-79
2020/12/23 14:47:04;;;;;;;13.85;6.78;;;11.00;99.90;;;;;;21074402;28;20118;-80
2020/12/23 14:57:05;;;;;;;12.27;7.43;;;10.80;99.90;;;;;;21085063;28;20536;-76
2020/12/23 15:07:09;;;;;;;14.70;6.93;;;10.80;99.90;;;;;;21090920;28;20040;-79
2020/12/23 15:17:10;;;;;;;17.13;7.77;;;10.50;99.90;;;;;;21095670;28;20063;-78
2020/12/23 15:27:11;;;;;;;12.20;9.40;;;10.30;99.90;;;;;;21070880;28;20028;-77
2020/12/23 15:37:12;;;;;;;10.60;7.23;;;10.10;99.90;;;;;;21040417;22;20037;-79
2020/12/23 15:47:13;;;;;;;12.50;7.10;;;10.00;99.90;;;;;;20940019;28;20055;-80
2020/12/23 15:57:13;;;;;;;11.57;7.50;;;9.90;99.90;;;;;;20954342;28;20032;-80
2020/12/23 16:07:22;;;;;;;12.50;5.57;;;9.70;99.90;;;;;;20924560;28;20048;-79
2020/12/23 16:17:23;;;;;;;18.67;8.70;;;9.70;99.90;;;;;;20906837;28;20032;-80
2020/12/23 16:27:24;;;;;;;13.40;8.23;;;9.50;99.90;;;;;;20939088;28;20142;-80
2020/12/23 16:37:25;;;;;;;13.00;7.70;;;9.40;99.90;;;;;;20926508;28;20106;-80
2020/12/23 16:47:26;;;;;;;22.93;14.20;;;9.40;99.90;;;;;;21009413;28;20032;-79
2020/12/23 16:57:28;;;;;;;20.65;10.30;;;9.30;99.90;;;;;;20993029;28;20036;-78
2020/12/23 17:07:29;;;;;;;;;;;9.20;99.90;;;;;;21010624;28;20054;-79
2020/12/23 17:17:30;;;;;;;35.65;18.42;;;9.50;99.90;;;;;;21008731;28;19916;-79
2020/12/23 17:27:31;;;;;;;30.10;17.20;;;9.60;99.90;;;;;;20991163;28;20036;-81
2020/12/23 17:37:32;;;;;;;57.37;24.80;;;9.30;99.90;;;;;;21006756;28;20182;-79
2020/12/23 17:47:33;;;;;;;123.40;38.07;;;9.20;99.90;;;;;;21008867;28;20036;-81
2020/12/23 17:57:33;;;;;;;32.27;13.83;;;9.40;99.90;;;;;;21005377;28;20115;-79
2020/12/23 18:07:34;;;;;;;48.20;27.17;;;9.30;99.90;;;;;;20987040;28;20127;-79
2020/12/23 18:17:36;;;;;;;18.90;10.50;;;9.20;99.90;;;;;;21003737;28;20155;-78
2020/12/23 18:27:37;;;;;;;18.70;10.73;;;9.20;99.90;;;;;;21081174;28;20397;-78
2020/12/23 18:37:38;;;;;;;24.77;13.03;;;9.30;99.90;;;;;;21004532;28;20029;-79
2020/12/23 18:47:39;;;;;;;48.87;24.20;;;9.20;99.90;;;;;;20963705;28;20098;-78
2020/12/23 18:57:47;;;;;;;20.10;12.73;;;9.20;99.90;;;;;;20926095;28;20052;-77
2020/12/23 19:08:00;;;;;;;24.98;13.90;;;9.30;99.90;;;;;;20868216;28;20098;-79
2020/12/23 19:18:01;;;;;;;;;;;9.60;99.90;;;;;;20866294;28;20088;-80
2020/12/23 19:28:03;;;;;;;16.58;10.85;;;9.70;99.90;;;;;;20884448;28;19990;-79
2020/12/23 19:38:14;;;;;;;20.48;12.43;;;9.90;99.90;;;;;;20887667;28;20041;-77
2020/12/23 19:48:15;;;;;;;24.50;13.95;;;10.10;99.90;;;;;;20954430;28;20025;-78
2020/12/23 19:58:16;;;;;;;20.87;10.63;;;10.10;99.90;;;;;;20930219;28;20074;-78
2020/12/23 20:08:17;;;;;;;15.70;9.30;;;10.10;99.90;;;;;;20953058;28;20047;-78
2020/12/23 20:18:17;;;;;;;4.87;3.00;;;10.00;99.90;;;;;;20896057;28;20143;-77
2020/12/23 20:28:18;;;;;;;1.57;0.77;;;9.90;99.90;;;;;;20977487;28;20033;-77
2020/12/23 20:38:19;;;;;;;1.57;0.40;;;10.30;99.90;;;;;;20978321;28;20021;-75
2020/12/23 20:48:20;;;;;;;0.27;0.27;;;10.30;99.90;;;;;;20898266;28;20333;-77
2020/12/23 20:58:21;;;;;;;0.33;0.30;;;10.40;99.90;;;;;;20939016;28;20131;-77
2020/12/23 21:08:22;;;;;;;0.40;0.30;;;10.20;99.90;;;;;;20956525;28;20036;-76
2020/12/23 21:18:22;;;;;;;0.20;0.20;;;10.00;99.90;;;;;;20958371;28;20024;-77
2020/12/23 21:28:23;;;;;;;0.60;0.50;;;10.00;99.90;;;;;;20989499;28;20067;-78
2020/12/23 21:38:24;;;;;;;5.03;1.00;;;9.90;99.90;;;;;;20971216;28;20037;-77
2020/12/23 21:48:25;;;;;;;1.10;0.80;;;9.80;99.90;;;;;;20900828;28;20044;-78
2020/12/23 21:58:32;;;;;;;4.07;1.47;;;9.70;99.90;;;;;;20998282;28;20103;-78
2020/12/23 22:08:33;;;;;;;6.68;4.13;;;9.60;99.90;;;;;;20973689;28;20047;-78
2020/12/23 22:18:34;;;;;;;2.77;1.63;;;9.50;99.90;;;;;;20972499;28;20036;-78
2020/12/23 22:28:34;;;;;;;3.17;1.87;;;9.50;99.90;;;;;;20973250;28;20032;-78
2020/12/23 22:38:35;;;;;;;3.63;1.83;;;9.50;99.90;;;;;;20974122;28;20067;-79
2020/12/23 22:48:37;;;;;;;2.93;1.87;;;9.50;99.90;;;;;;20963103;28;20043;-79
2020/12/23 22:58:45;;;;;;;3.20;1.90;;;9.40;99.90;;;;;;20925343;28;20068;-79
2020/12/23 23:08:46;;;;;;;4.07;1.70;;;9.30;99.90;;;;;;20974542;28;20066;-78
2020/12/23 23:18:47;;;;;;;1.27;0.97;;;9.30;99.90;;;;;;20978396;28;20030;-78
2020/12/23 23:28:48;;;;;;;1.67;0.60;;;9.20;99.90;;;;;;20923145;28;20044;-80
2020/12/23 23:38:49;;;;;;;1.90;0.70;;;9.30;99.90;;;;;;20951629;28;20108;-78
2020/12/23 23:48:50;;;;;;;3.17;0.50;;;9.20;99.90;;;;;;20946610;28;20498;-78
2020/12/23 23:58:50;;;;;;;1.07;0.60;;;9.20;99.90;;;;;;20955025;28;20163;-79
